Time;durP1;ratioP1;P1;durP2;ratioP2;P2;SDS_P1;SDS_P2;PMS_P1;PMS_P2;Temp;Humidity;BMP_temperature;BMP_pressure;BME280_temperature;BME280_humidity;BME280_pressure;Samples;Min_cycle;Max_cycle;Signal;HPM_P1;HPM_P2
2023/07/25 05:09:09;;;;;;;2.45;0.75;;;;;;;14.50;84.63;100822.69;4993192;28;99190;-27
2023/07/25 05:11:35;;;;;;;2.33;0.70;;;;;;;14.50;85.23;100823.56;4994197;28;99219;-28
2023/07/25 05:14:00;;;;;;;1.23;0.55;;;;;;;14.54;85.17;100825.09;4994493;28;96441;-27
2023/07/25 05:16:25;;;;;;;4.10;1.10;;;;;;;14.55;85.06;100820.50;4994496;28;96800;-27
2023/07/25 05:18:51;;;;;;;2.38;0.77;;;;;;;14.56;84.83;100823.13;4994520;28;97884;-29
2023/07/25 05:21:16;;;;;;;2.90;0.73;;;;;;;14.61;84.57;100829.09;4994543;28;97278;-29
2023/07/25 05:23:41;;;;;;;5.57;1.10;;;;;;;14.66;85.06;100826.00;4994360;28;96709;-27
2023/07/25 05:26:07;;;;;;;3.88;0.88;;;;;;;14.72;84.72;100828.22;4994497;28;96766;-27
2023/07/25 05:28:32;;;;;;;1.33;0.32;;;;;;;14.74;83.89;100834.41;4994294;28;97853;-27
2023/07/25 05:30:57;;;;;;;4.57;0.85;;;;;;;14.71;84.04;100826.50;4994579;28;97844;-27
2023/07/25 05:33:23;;;;;;;2.50;0.57;;;;;;;14.78;84.26;100838.66;4994474;28;96451;-28
2023/07/25 05:35:48;;;;;;;2.97;0.80;;;;;;;14.80;83.89;100828.50;4993907;28;96852;-27
2023/07/25 05:38:13;;;;;;;4.88;0.85;;;;;;;14.82;84.05;100823.75;4992587;28;100122;-27
2023/07/25 05:40:39;;;;;;;2.17;0.57;;;;;;;14.83;84.10;100827.38;4993980;28;97751;-27
2023/07/25 05:43:04;;;;;;;3.33;0.95;;;;;;;14.83;84.17;100830.97;4992569;28;96615;-27
2023/07/25 05:45:29;;;;;;;2.58;0.82;;;;;;;14.85;83.41;100836.31;4994161;28;96683;-28
2023/07/25 05:47:55;;;;;;;1.63;0.60;;;;;;;14.87;83.46;100831.56;4994077;28;97892;-27
2023/07/25 05:50:20;;;;;;;3.03;0.77;;;;;;;15.00;82.93;100840.53;4994012;28;97825;-27
2023/07/25 05:52:45;;;;;;;1.75;0.60;;;;;;;15.06;82.66;100825.50;4993722;28;96747;-27
2023/07/25 05:55:11;;;;;;;2.20;1.00;;;;;;;15.21;81.94;100826.16;4994441;28;96795;-27
2023/07/25 05:57:36;;;;;;;2.72;0.52;;;;;;;15.28;81.83;100832.84;4993471;28;97941;-27
2023/07/25 06:00:02;;;;;;;0.65;0.40;;;;;;;15.31;81.64;100835.31;4993810;28;97291;-27
2023/07/25 06:02:28;;;;;;;3.75;1.10;;;;;;;15.36;81.26;100837.66;4991795;28;98894;-27
2023/07/25 06:04:53;;;;;;;0.30;0.30;;;;;;;15.42;81.60;100838.03;4993795;28;96749;-29
2023/07/25 06:07:19;;;;;;;0.77;0.50;;;;;;;15.50;80.41;100837.41;4993517;28;97934;-27
2023/07/25 06:09:44;;;;;;;1.45;0.98;;;;;;;15.59;80.14;100839.38;4993254;28;97313;-27
2023/07/25 06:12:10;;;;;;;1.00;0.50;;;;;;;15.66;79.99;100846.06;4993570;28;96623;-27
2023/07/25 06:14:36;;;;;;;0.73;0.50;;;;;;;15.75;79.66;100846.31;4992777;28;96770;-27
2023/07/25 06:17:02;;;;;;;2.42;0.50;;;;;;;15.85;79.51;100842.69;4991928;28;100935;-27
2023/07/25 06:19:28;;;;;;;0.57;0.47;;;;;;;15.91;79.53;100836.69;4992233;28;100842;-27
2023/07/25 06:21:55;;;;;;;0.63;0.40;;;;;;;16.02;78.74;100834.94;4992997;28;96755;-27
2023/07/25 06:24:20;;;;;;;0.90;0.73;;;;;;;16.08;78.07;100837.13;4993396;28;96506;-27
2023/07/25 06:26:46;;;;;;;0.60;0.35;;;;;;;16.15;77.26;100841.06;4992965;28;97960;-27
2023/07/25 06:29:11;;;;;;;1.08;0.35;;;;;;;16.22;76.87;100827.75;4993345;28;97210;-27
2023/07/25 06:31:37;;;;;;;1.65;0.50;;;;;;;16.32;76.33;100843.22;4993507;28;96681;-27
2023/07/25 06:34:03;;;;;;;2.10;0.47;;;;;;;16.43;76.06;100827.78;4991990;28;96974;-27
2023/07/25 06:36:28;;;;;;;2.13;0.68;;;;;;;16.47;75.47;100824.66;4992901;28;97983;-27
2023/07/25 06:38:53;;;;;;;1.10;0.60;;;;;;;16.66;75.07;100823.03;4993144;28;97803;-27
2023/07/25 06:41:19;;;;;;;0.60;0.30;;;;;;;16.74;74.44;100824.09;4993242;28;96666;-27
2023/07/25 06:43:44;;;;;;;3.40;0.40;;;;;;;16.83;73.67;100829.78;4993771;28;96833;-26
2023/07/25 06:46:09;;;;;;;0.47;0.25;;;;;;;16.74;72.95;100832.28;4992970;28;98154;-27
2023/07/25 06:48:35;;;;;;;2.53;0.40;;;;;;;16.79;74.07;100840.13;4993042;28;97214;-26
2023/07/25 06:51:00;;;;;;;2.95;0.50;;;;;;;16.88;73.64;100838.47;4992443;28;96636;-27
2023/07/25 06:53:25;;;;;;;2.30;0.47;;;;;;;16.90;72.50;100830.97;4993214;28;96798;-27
2023/07/25 06:55:51;;;;;;;1.63;0.60;;;;;;;17.17;72.18;100844.06;4992998;28;97396;-27
2023/07/25 06:58:16;;;;;;;1.25;0.38;;;;;;;17.36;72.09;100843.28;4981576;28;98735;-28
2023/07/25 07:00:41;;;;;;;0.28;0.20;;;;;;;17.62;71.33;100849.13;4973196;28;96704;-27
2023/07/25 07:03:08;;;;;;;1.27;0.40;;;;;;;17.59;69.89;100843.91;4973175;28;96800;-27
2023/07/25 07:05:33;;;;;;;2.50;0.70;;;;;;;17.46;70.49;100843.31;4972495;28;99547;-28
2023/07/25 07:08:00;;;;;;;2.28;0.30;;;;;;;17.22;70.41;100847.28;4973313;28;97469;-27
2023/07/25 07:10:25;;;;;;;1.15;0.47;;;;;;;17.20;71.25;100841.91;4971254;28;96871;-27
2023/07/25 07:12:53;;;;;;;4.30;0.80;;;;;;;17.08;69.92;100856.72;4972813;28;96832;-26
2023/07/25 07:15:23;;;;;;;0.95;0.50;;;;;;;16.94;71.16;100843.38;4972161;28;98181;-27
2023/07/25 07:17:49;;;;;;;0.40;0.30;;;;;;;16.84;70.91;100851.53;4968805;28;101007;-27
2023/07/25 07:20:15;;;;;;;1.98;0.63;;;;;;;16.66;71.05;100845.78;4968759;28;97150;-29
2023/07/25 07:22:40;;;;;;;2.20;0.50;;;;;;;16.61;70.70;100850.78;4970619;28;97204;-27
2023/07/25 07:25:06;;;;;;;1.00;0.38;;;;;;;16.60;71.85;100848.19;4970616;28;98130;-27
2023/07/25 07:27:31;;;;;;;1.02;0.35;;;;;;;16.59;72.67;100854.63;4970485;28;97772;-28
2023/07/25 07:29:57;;;;;;;3.28;0.47;;;;;;;16.76;72.23;100848.59;4970735;28;97107;-28
2023/07/25 07:32:22;;;;;;;2.00;0.30;;;;;;;17.03;69.58;100842.56;4972263;28;96789;-27
2023/07/25 07:34:47;;;;;;;0.80;0.30;;;;;;;17.41;68.65;100841.84;4972198;28;97611;-31
2023/07/25 07:37:13;;;;;;;1.63;0.90;;;;;;;17.74;67.55;100841.66;4972418;28;97789;-28
2023/07/25 07:39:39;;;;;;;1.05;0.35;;;;;;;17.93;65.82;100829.91;4971823;28;96523;-28
2023/07/25 07:42:05;;;;;;;1.92;0.47;;;;;;;18.20;66.17;100838.28;4983895;28;96871;-27
2023/07/25 07:44:30;;;;;;;0.95;0.40;;;;;;;18.33;65.58;100846.22;4972409;28;97564;-27
2023/07/25 07:46:56;;;;;;;5.32;0.80;;;;;;;18.65;64.64;100845.88;4972439;28;97762;-27
2023/07/25 07:49:21;;;;;;;2.45;0.73;;;;;;;18.89;64.42;100850.91;4972186;28;96719;-27
2023/07/25 07:51:46;;;;;;;3.65;0.70;;;;;;;19.00;63.37;100855.38;4979111;28;96809;-27
2023/07/25 07:54:12;;;;;;;1.90;0.40;;;;;;;18.73;62.46;100845.16;4991994;28;97532;-27
2023/07/25 07:56:37;;;;;;;1.30;0.38;;;;;;;18.66;62.88;100853.13;4991998;28;98724;-27
2023/07/25 07:59:02;;;;;;;1.50;0.50;;;;;;;18.74;64.31;100843.28;4992425;28;96593;-27
2023/07/25 08:01:28;;;;;;;2.05;0.40;;;;;;;18.45;63.88;100849.69;4998482;28;96807;-27
2023/07/25 08:03:54;;;;;;;1.48;0.47;;;;;;;18.28;64.42;100853.13;4996427;28;98030;-27
2023/07/25 08:06:19;;;;;;;3.35;0.52;;;;;;;18.08;65.92;100855.88;4977209;28;100470;-27
2023/07/25 08:08:45;;;;;;;0.50;0.28;;;;;;;17.94;65.08;100861.78;4978435;28;96729;-27
2023/07/25 08:11:10;;;;;;;0.63;0.30;;;;;;;17.84;65.89;100864.50;4978629;28;96655;-27
2023/07/25 08:13:35;;;;;;;0.52;0.20;;;;;;;17.93;65.35;100871.03;4978571;28;97974;-27
2023/07/25 08:16:01;;;;;;;1.05;0.52;;;;;;;18.39;64.41;100861.22;4978895;28;97226;-27
2023/07/25 08:18:26;;;;;;;0.20;0.20;;;;;;;18.79;63.26;100860.22;4978642;28;96746;-26
2023/07/25 08:20:56;;;;;;;3.63;0.70;;;;;;;19.10;62.25;100853.47;4978959;28;96853;-27
2023/07/25 08:23:22;;;;;;;0.43;0.20;;;;;;;18.89;59.94;100866.53;4978246;28;100024;-26
2023/07/25 08:25:48;;;;;;;0.70;0.40;;;;;;;18.67;62.57;100865.81;4978163;28;99684;-26
2023/07/25 08:28:13;;;;;;;1.35;0.47;;;;;;;18.50;60.73;100871.19;4978236;28;97225;-26
2023/07/25 08:30:39;;;;;;;2.80;0.47;;;;;;;18.34;63.13;100871.78;4978274;28;96523;-27
2023/07/25 08:33:04;;;;;;;1.50;0.35;;;;;;;18.08;62.00;100871.47;4978228;28;97478;-27
2023/07/25 08:35:30;;;;;;;0.63;0.32;;;;;;;17.99;63.24;100884.13;4978424;28;97433;-28
2023/07/25 08:37:55;;;;;;;1.35;0.20;;;;;;;17.86;63.51;100878.94;4976859;28;96583;-28
2023/07/25 08:40:21;;;;;;;0.52;0.25;;;;;;;18.04;63.25;100882.72;4978365;28;96956;-26
2023/07/25 08:42:50;;;;;;;5.13;0.40;;;;;;;18.57;62.07;100878.69;4990285;28;97406;-28
2023/07/25 08:45:17;;;;;;;0.82;0.20;;;;;;;19.01;61.12;100880.97;4997008;28;100666;-27
2023/07/25 08:47:45;;;;;;;0.40;0.20;;;;;;;19.52;59.62;100887.84;4997970;28;96475;-27
2023/07/25 08:50:19;;;;;;;1.27;0.50;;;;;;;19.80;58.23;100891.50;4996763;28;96921;-27
2023/07/25 08:52:50;;;;;;;1.17;0.30;;;;;;;19.37;57.20;100886.63;4997376;28;97533;-27
2023/07/25 08:55:16;;;;;;;1.60;0.30;;;;;;;18.92;57.66;100888.19;4997838;28;99578;-27
2023/07/25 08:57:42;;;;;;;1.02;0.20;;;;;;;18.70;61.27;100894.84;4997735;28;96582;-27
2023/07/25 09:00:08;;;;;;;0.47;0.28;;;;;;;19.04;60.77;100895.25;4996333;28;96824;-26
2023/07/25 09:02:34;;;;;;;3.05;0.35;;;;;;;19.48;59.21;100897.44;4996315;28;102456;-27
2023/07/25 09:05:00;;;;;;;1.60;0.47;;;;;;;19.81;58.08;100898.75;4997807;28;97831;-27
2023/07/25 09:07:26;;;;;;;1.33;0.38;;;;;;;19.73;57.54;100888.50;4997846;28;96491;-26
2023/07/25 09:09:51;;;;;;;0.10;0.10;;;;;;;19.45;58.52;100912.31;4997903;28;96809;-26
2023/07/25 09:12:17;;;;;;;2.25;0.40;;;;;;;19.56;56.06;100893.91;4993925;28;97979;-26
2023/07/25 09:14:43;;;;;;;0.08;0.08;;;;;;;19.86;56.90;100909.28;4992820;28;101199;-27
2023/07/25 09:17:08;;;;;;;1.88;0.47;;;;;;;20.10;56.36;100897.69;4993801;28;96530;-26
2023/07/25 09:19:34;;;;;;;2.67;0.38;;;;;;;20.40;56.05;100895.56;4994592;28;96820;-26
2023/07/25 09:22:00;;;;;;;2.03;0.47;;;;;;;20.72;55.91;100900.56;4994078;28;99084;-27
2023/07/25 09:24:36;;;;;;;1.67;0.20;;;;;;;20.68;53.39;100918.41;4994247;28;97845;-27
2023/07/25 09:27:01;;;;;;;1.40;0.43;;;;;;;20.32;56.54;100907.38;4992937;28;96618;-27
2023/07/25 09:29:30;;;;;;;1.80;0.35;;;;;;;19.95;54.44;100924.84;4994365;28;96837;-28
2023/07/25 09:31:56;;;;;;;0.73;0.30;;;;;;;19.53;55.58;100926.16;4992733;28;100817;-27
2023/07/25 09:34:25;;;;;;;0.38;0.08;;;;;;;19.16;55.14;100926.13;4994237;28;99120;-27
2023/07/25 09:36:50;;;;;;;2.40;0.30;;;;;;;19.33;57.77;100929.13;4992866;28;96615;-31
2023/07/25 09:39:16;;;;;;;0.65;0.30;;;;;;;19.73;55.87;100931.59;4994649;28;96782;-32
2023/07/25 09:41:43;;;;;;;1.20;0.38;;;;;;;20.11;53.84;100940.66;4992110;28;101640;-27
2023/07/25 09:44:09;;;;;;;3.20;0.50;;;;;;;20.34;54.50;100932.84;4992586;28;101031;-27
2023/07/25 09:46:34;;;;;;;1.70;0.30;;;;;;;20.34;53.98;100933.69;4992616;28;96636;-27
2023/07/25 09:49:00;;;;;;;2.65;0.38;;;;;;;20.48;53.87;100932.28;4994210;28;96824;-28
2023/07/25 09:51:26;;;;;;;3.92;0.43;;;;;;;20.93;54.60;100939.63;4993578;28;99335;-27
2023/07/25 09:53:54;;;;;;;0.20;0.20;;;;;;;21.29;51.49;100935.91;4993530;28;99266;-26
2023/07/25 09:56:24;;;;;;;3.40;0.50;;;;;;;21.46;51.96;100932.25;4992529;28;97500;-27
2023/07/25 09:58:51;;;;;;;1.65;0.17;;;;;;;21.65;52.42;100939.44;4992437;28;96920;-26
2023/07/25 10:01:17;;;;;;;0.20;0.20;;;;;;;21.36;52.19;100937.00;4993499;28;99733;-27
2023/07/25 10:03:43;;;;;;;0.98;0.38;;;;;;;21.00;53.76;100939.84;4992216;28;100719;-27
2023/07/25 10:06:10;;;;;;;0.30;0.20;;;;;;;20.65;53.30;100965.53;4975454;28;97258;-27
2023/07/25 10:08:38;;;;;;;0.32;0.22;;;;;;;20.17;51.48;100951.06;4993270;28;96886;-27
2023/07/25 10:11:05;;;;;;;0.47;0.22;;;;;;;19.97;54.71;100946.69;4993536;28;98495;-27
2023/07/25 10:13:32;;;;;;;1.08;0.28;;;;;;;19.95;53.07;100957.84;4992014;28;100485;-26
2023/07/25 10:15:59;;;;;;;0.20;0.20;;;;;;;20.30;54.17;100953.41;4992248;28;96875;-26
2023/07/25 10:18:26;;;;;;;0.20;0.20;;;;;;;20.91;52.46;100946.31;4992127;28;96846;-27
2023/07/25 10:20:53;;;;;;;1.13;0.50;;;;;;;21.26;52.17;100945.38;4992027;28;101087;-27
2023/07/25 10:23:29;;;;;;;0.47;0.20;;;;;;;21.62;48.25;100948.91;4991838;28;101208;-27
2023/07/25 10:25:55;;;;;;;1.15;0.30;;;;;;;21.53;48.67;100947.13;4992184;28;96571;-27
2023/07/25 10:28:25;;;;;;;0.38;0.13;;;;;;;21.48;50.15;100949.50;4992057;28;96870;-27
2023/07/25 10:30:52;;;;;;;0.52;0.20;;;;;;;21.20;50.90;100957.88;4991266;28;101406;-27
2023/07/25 10:33:17;;;;;;;0.17;0.08;;;;;;;21.17;50.13;100954.59;4991805;28;99544;-26
2023/07/25 10:35:54;;;;;;;0.55;0.20;;;;;;;21.38;47.57;100963.38;4993728;28;96648;-26
2023/07/25 10:38:31;;;;;;;0.60;0.13;;;;;;;21.67;47.66;100961.34;4993365;28;96594;-26
2023/07/25 10:41:09;;;;;;;1.08;0.30;;;;;;;22.01;48.68;100951.13;4991621;28;100811;-27
2023/07/25 10:43:48;;;;;;;1.30;0.25;;;;;;;22.23;49.90;100960.72;4991578;28;101206;-26
2023/07/25 10:46:19;;;;;;;1.55;0.20;;;;;;;22.35;48.02;100955.75;4993090;28;96623;-27
2023/07/25 10:48:45;;;;;;;2.25;0.40;;;;;;;22.35;48.02;100963.16;4993488;28;96801;-27
2023/07/25 10:51:12;;;;;;;0.65;0.20;;;;;;;22.11;48.33;100955.66;4991500;28;100925;-27
2023/07/25 10:53:39;;;;;;;1.88;0.38;;;;;;;22.08;47.84;100945.81;4991629;28;100093;-26
2023/07/25 10:56:04;;;;;;;0.63;0.20;;;;;;;22.43;48.83;100954.94;4991096;28;97260;-27
2023/07/25 10:58:56;;;;;;;0.75;0.30;;;;;;;22.80;48.39;100948.91;4991163;28;96967;-27
2023/07/25 11:01:32;;;;;;;0.10;0.10;;;;;;;22.69;47.40;100963.03;4992548;28;99917;-27
2023/07/25 11:04:21;;;;;;;1.38;0.22;;;;;;;21.97;47.24;100963.50;4992951;28;97699;-27
2023/07/25 11:06:49;;;;;;;1.10;0.40;;;;;;;21.55;49.99;100969.88;4991443;28;96772;-26
2023/07/25 11:09:14;;;;;;;0.80;0.17;;;;;;;21.32;50.61;100960.38;4990686;28;96931;-27
2023/07/25 11:11:48;;;;;;;0.73;0.15;;;;;;;21.45;48.39;100957.22;4992524;28;98525;-27
2023/07/25 11:14:15;;;;;;;1.27;0.30;;;;;;;21.39;49.28;100964.22;4991536;28;100861;-26
2023/07/25 11:16:42;;;;;;;0.20;0.10;;;;;;;21.29;50.15;100964.34;4991150;28;96686;-27
2023/07/25 11:19:09;;;;;;;0.17;0.13;;;;;;;21.65;49.94;100967.00;4991296;28;96981;-27
2023/07/25 11:21:43;;;;;;;0.75;0.38;;;;;;;21.91;48.02;100964.19;4991995;28;98135;-28
2023/07/25 11:24:09;;;;;;;1.08;0.40;;;;;;;22.21;47.12;100956.41;4990964;28;101023;-27
2023/07/25 11:26:38;;;;;;;0.47;0.22;;;;;;;22.40;48.33;100969.03;4991034;28;96833;-27
2023/07/25 11:29:09;;;;;;;1.98;0.17;;;;;;;22.30;48.83;100965.56;4991157;28;96928;-27
2023/07/25 11:31:41;;;;;;;0.35;0.17;;;;;;;22.30;48.30;100958.16;4991016;28;100991;-27
2023/07/25 11:34:15;;;;;;;1.25;0.45;;;;;;;22.55;44.94;100961.84;4991396;28;99933;-28
2023/07/25 11:36:42;;;;;;;1.17;0.30;;;;;;;22.10;46.31;100962.22;4990998;28;96683;-27
2023/07/25 11:39:09;;;;;;;0.90;0.45;;;;;;;21.66;47.21;100962.34;4991227;28;96558;-26
2023/07/25 11:41:39;;;;;;;1.00;0.40;;;;;;;21.44;49.68;100978.41;4990719;28;99244;-28
2023/07/25 11:44:09;;;;;;;2.22;0.30;;;;;;;21.53;49.04;100982.94;4990798;28;100786;-27
2023/07/25 11:46:36;;;;;;;0.25;0.20;;;;;;;21.34;48.55;100984.00;4990308;28;97524;-26
2023/07/25 11:49:03;;;;;;;0.10;0.10;;;;;;;21.52;49.19;100981.19;4990846;28;97014;-26
2023/07/25 11:51:29;;;;;;;0.50;0.20;;;;;;;21.42;48.76;100985.97;4990622;28;100908;-27
2023/07/25 11:53:55;;;;;;;0.68;0.25;;;;;;;21.09;49.53;100974.66;4990479;28;101070;-27
2023/07/25 11:56:21;;;;;;;1.00;0.35;;;;;;;20.78;49.93;100988.88;4990612;28;96603;-27
2023/07/25 11:58:48;;;;;;;3.10;0.28;;;;;;;20.68;50.46;100993.59;4992006;28;96930;-26
2023/07/25 12:01:14;;;;;;;1.75;0.30;;;;;;;21.09;50.26;100987.59;4990654;28;100961;-27
2023/07/25 12:03:46;;;;;;;0.25;0.25;;;;;;;21.54;49.03;100998.44;4992110;28;98098;-26
2023/07/25 12:06:11;;;;;;;0.63;0.30;;;;;;;21.49;47.83;100992.56;4990691;28;96706;-27
2023/07/25 12:08:47;;;;;;;0.13;0.10;;;;;;;21.57;48.43;100997.25;4975614;28;96882;-26
2023/07/25 12:11:14;;;;;;;0.40;0.20;;;;;;;21.24;48.30;100991.50;4972021;28;97418;-27
2023/07/25 12:13:56;;;;;;;1.95;0.30;;;;;;;20.95;47.34;100989.91;4970478;28;100494;-26
2023/07/25 12:16:25;;;;;;;0.22;0.17;;;;;;;21.24;46.78;100999.78;4972137;28;96532;-27
2023/07/25 12:18:52;;;;;;;0.75;0.10;;;;;;;21.45;46.42;100990.28;4971844;28;98501;-26
2023/07/25 12:21:28;;;;;;;0.43;0.28;;;;;;;21.39;46.98;101000.06;4971765;28;97467;-27
2023/07/25 12:23:54;;;;;;;0.68;0.30;;;;;;;21.24;46.26;101004.41;4971910;28;97604;-27
2023/07/25 12:26:21;;;;;;;0.63;0.30;;;;;;;21.45;45.98;101009.59;4970452;28;96724;-26
2023/07/25 12:28:48;;;;;;;1.88;0.32;;;;;;;21.57;47.71;101000.00;4971008;28;96994;-28
2023/07/25 12:31:13;;;;;;;0.30;0.15;;;;;;;21.50;47.35;100996.19;4970415;28;101447;-27
2023/07/25 12:33:41;;;;;;;0.73;0.10;;;;;;;21.29;47.67;101000.16;4970459;28;98880;-27
2023/07/25 12:36:06;;;;;;;0.28;0.28;;;;;;;20.90;48.11;100997.75;4971351;28;96617;-26
2023/07/25 12:38:32;;;;;;;0.40;0.15;;;;;;;21.11;48.96;100999.31;4970475;28;96819;-27
2023/07/25 12:40:58;;;;;;;2.00;0.30;;;;;;;21.25;47.83;100995.97;4971622;28;98008;-27
2023/07/25 12:43:23;;;;;;;1.33;0.10;;;;;;;21.53;47.48;101007.75;4970165;28;100879;-26
2023/07/25 12:45:48;;;;;;;0.80;0.20;;;;;;;21.67;47.78;101000.78;4972414;28;96534;-26
2023/07/25 12:48:14;;;;;;;0.30;0.20;;;;;;;21.85;46.20;100990.53;4975358;28;96815;-27
2023/07/25 12:50:39;;;;;;;1.08;0.30;;;;;;;22.06;45.62;100998.38;4975205;28;97810;-27
2023/07/25 12:53:05;;;;;;;0.30;0.10;;;;;;;22.20;44.25;101001.56;4975062;28;99583;-27
2023/07/25 12:55:31;;;;;;;1.95;0.20;;;;;;;22.35;44.88;101008.19;4975048;28;96623;-26
2023/07/25 12:57:56;;;;;;;0.63;0.30;;;;;;;22.46;45.98;100991.31;4974732;28;96976;-27
2023/07/25 13:00:21;;;;;;;1.13;0.30;;;;;;;22.27;43.44;101009.03;4974558;28;97920;-26
2023/07/25 13:02:47;;;;;;;0.77;0.20;;;;;;;22.29;43.82;101000.59;4974878;28;97828;-27
2023/07/25 13:05:12;;;;;;;0.57;0.20;;;;;;;22.42;44.57;101000.97;4974995;28;96462;-26
2023/07/25 13:07:37;;;;;;;0.15;0.10;;;;;;;22.54;45.53;100998.75;4974678;28;96922;-27
2023/07/25 13:10:06;;;;;;;0.75;0.40;;;;;;;22.77;44.96;101003.66;4973937;28;98414;-27
2023/07/25 13:12:31;;;;;;;0.20;0.20;;;;;;;22.90;45.76;101012.28;4973135;28;99416;-27
2023/07/25 13:14:57;;;;;;;0.40;0.20;;;;;;;22.84;45.30;101010.22;4974620;28;96500;-27
2023/07/25 13:17:22;;;;;;;0.30;0.20;;;;;;;22.71;45.02;100998.78;4975098;28;96800;-27
2023/07/25 13:19:48;;;;;;;0.35;0.17;;;;;;;22.87;45.09;101007.09;4974635;28;98229;-26
2023/07/25 13:22:13;;;;;;;0.25;0.20;;;;;;;22.81;45.15;101005.00;4974518;28;97801;-26
2023/07/25 13:24:38;;;;;;;0.20;0.13;;;;;;;22.78;44.55;101008.97;4974027;28;96562;-28
2023/07/25 13:27:04;;;;;;;0.10;0.10;;;;;;;22.71;44.14;101012.59;4974386;28;96837;-26
2023/07/25 13:29:29;;;;;;;2.80;0.35;;;;;;;22.71;44.21;100999.66;4974325;28;97191;-26
2023/07/25 13:31:55;;;;;;;0.28;0.20;;;;;;;22.52;43.91;101003.56;4974061;28;99327;-26
2023/07/25 13:34:20;;;;;;;0.95;0.47;;;;;;;22.17;45.20;101004.66;4974537;28;96493;-27
2023/07/25 13:36:46;;;;;;;0.32;0.30;;;;;;;21.89;45.04;101012.28;4974162;28;96850;-27
2023/07/25 13:39:11;;;;;;;1.30;0.28;;;;;;;21.78;46.20;101018.94;4974171;28;97468;-27
2023/07/25 13:41:36;;;;;;;0.80;0.38;;;;;;;21.65;46.88;101015.78;4974311;28;97760;-27
2023/07/25 13:44:02;;;;;;;0.20;0.20;;;;;;;21.33;46.18;101019.97;4974073;28;96596;-28
2023/07/25 13:46:27;;;;;;;2.28;0.30;;;;;;;21.12;47.39;101023.09;4972767;28;96876;-26
2023/07/25 13:48:52;;;;;;;2.65;0.30;;;;;;;21.10;47.95;101014.13;4973659;28;98163;-26
2023/07/25 13:51:18;;;;;;;1.73;0.38;;;;;;;21.05;47.45;101020.09;4973889;28;99215;-27
2023/07/25 13:53:43;;;;;;;0.50;0.30;;;;;;;20.86;46.73;101036.78;4973754;28;96791;-27
2023/07/25 13:56:09;;;;;;;0.75;0.20;;;;;;;20.89;47.59;101039.22;4973978;28;96833;-26
2023/07/25 13:58:34;;;;;;;0.30;0.25;;;;;;;20.94;47.27;101025.84;4971794;28;98419;-26
2023/07/25 14:01:00;;;;;;;3.53;0.35;;;;;;;20.88;48.47;101026.47;4973588;28;99318;-27
2023/07/25 14:03:25;;;;;;;0.88;0.30;;;;;;;20.78;48.17;101032.03;4973863;28;96623;-27
2023/07/25 14:05:50;;;;;;;2.90;0.30;;;;;;;20.92;47.59;101022.38;4974442;28;96806;-27
2023/07/25 14:08:16;;;;;;;1.88;0.52;;;;;;;21.20;48.26;101031.41;4973526;28;99276;-27
2023/07/25 14:10:42;;;;;;;1.33;0.43;;;;;;;21.41;48.21;101028.34;4973140;28;97931;-26
2023/07/25 14:13:07;;;;;;;0.10;0.10;;;;;;;21.57;47.99;101022.97;4971774;28;97593;-27
2023/07/25 14:15:33;;;;;;;1.33;0.43;;;;;;;21.70;47.65;101029.94;4973618;28;96885;-26
2023/07/25 14:18:00;;;;;;;1.67;0.47;;;;;;;21.69;45.97;101025.41;4973337;28;99689;-28
2023/07/25 14:20:26;;;;;;;0.80;0.32;;;;;;;21.76;47.16;101037.53;4972049;28;100904;-26
2023/07/25 14:22:51;;;;;;;0.38;0.20;;;;;;;21.78;47.46;101032.72;4972224;28;96672;-27
2023/07/25 14:25:16;;;;;;;1.08;0.38;;;;;;;21.73;46.79;101035.97;4973619;28;96809;-27
2023/07/25 14:27:42;;;;;;;0.73;0.47;;;;;;;21.72;46.61;101041.66;4973486;28;97983;-27
2023/07/25 14:30:08;;;;;;;0.90;0.40;;;;;;;21.62;46.84;101039.03;4972996;28;97495;-27
2023/07/25 14:32:33;;;;;;;1.85;0.30;;;;;;;21.58;46.52;101038.47;4971947;28;96587;-27
2023/07/25 14:34:58;;;;;;;0.38;0.22;;;;;;;21.61;47.25;101043.63;4973558;28;96829;-26
2023/07/25 14:37:25;;;;;;;1.63;0.80;;;;;;;21.65;47.33;101043.34;4973072;28;97473;-27
2023/07/25 14:39:52;;;;;;;1.48;0.50;;;;;;;21.60;46.72;101036.41;4971544;28;101243;-26
2023/07/25 14:42:17;;;;;;;0.47;0.22;;;;;;;21.62;47.17;101047.28;4973334;28;96748;-26
2023/07/25 14:44:43;;;;;;;1.73;0.38;;;;;;;21.51;47.17;101039.28;4973587;28;96805;-27
2023/07/25 14:47:08;;;;;;;0.80;0.40;;;;;;;21.51;46.95;101045.66;4973199;28;97898;-27
2023/07/25 14:49:34;;;;;;;0.32;0.25;;;;;;;21.46;46.49;101049.91;4973278;28;97767;-27
2023/07/25 14:51:59;;;;;;;0.20;0.20;;;;;;;21.43;46.76;101048.34;4973106;28;96808;-27
2023/07/25 14:54:24;;;;;;;0.90;0.40;;;;;;;21.47;46.88;101059.91;4972909;28;96900;-26
2023/07/25 14:56:50;;;;;;;0.40;0.30;;;;;;;21.39;46.74;101056.06;4972776;28;99517;-26
2023/07/25 14:59:15;;;;;;;0.57;0.30;;;;;;;21.36;46.76;101053.59;4972524;28;99285;-27
2023/07/25 15:01:41;;;;;;;0.63;0.45;;;;;;;21.37;46.69;101059.97;4972707;28;96733;-27
2023/07/25 15:04:06;;;;;;;1.20;0.38;;;;;;;21.35;47.00;101059.25;4971718;28;96846;-27
2023/07/25 15:06:31;;;;;;;0.52;0.40;;;;;;;21.24;46.43;101063.16;4973055;28;97399;-27
2023/07/25 15:08:57;;;;;;;2.03;0.30;;;;;;;21.11;47.22;101066.28;4971241;28;99148;-26
2023/07/25 15:11:22;;;;;;;0.95;0.50;;;;;;;20.94;47.21;101068.03;4973105;28;96643;-26
2023/07/25 15:13:48;;;;;;;5.13;0.40;;;;;;;20.96;47.82;101068.72;4973012;28;96861;-27
2023/07/25 15:16:13;;;;;;;0.40;0.30;;;;;;;20.98;46.96;101065.84;4971383;28;99820;-27
2023/07/25 15:18:41;;;;;;;1.77;0.47;;;;;;;20.88;48.41;101068.66;4972930;28;97858;-27
2023/07/25 15:21:06;;;;;;;0.85;0.30;;;;;;;20.68;48.23;101080.81;4971413;28;96786;-27
2023/07/25 15:23:32;;;;;;;0.47;0.30;;;;;;;20.58;47.84;101072.63;4972565;28;96856;-27
2023/07/25 15:25:57;;;;;;;0.65;0.20;;;;;;;20.60;47.96;101067.84;4972403;28;97455;-26
2023/07/25 15:28:22;;;;;;;0.65;0.40;;;;;;;20.74;48.12;101067.31;4972815;28;98048;-29
2023/07/25 15:30:55;;;;;;;0.40;0.40;;;;;;;20.76;47.52;101073.53;4972589;28;97276;-26
2023/07/25 15:33:21;;;;;;;1.17;0.40;;;;;;;20.54;47.01;101076.66;4971341;28;96833;-26
2023/07/25 15:35:46;;;;;;;1.00;0.28;;;;;;;20.44;48.22;101081.38;4972479;28;97494;-26
2023/07/25 15:38:12;;;;;;;0.57;0.30;;;;;;;20.37;47.68;101079.22;4972314;28;98117;-27
2023/07/25 15:40:37;;;;;;;0.60;0.30;;;;;;;20.35;48.09;101080.38;4972641;28;96701;-27
2023/07/25 15:43:05;;;;;;;2.22;0.30;;;;;;;20.34;47.85;101086.91;4972725;28;96828;-27
2023/07/25 15:45:34;;;;;;;1.80;0.60;;;;;;;20.25;47.87;101087.81;4972360;28;98155;-28
2023/07/25 15:47:59;;;;;;;2.92;0.60;;;;;;;20.22;47.94;101086.25;4972223;28;98171;-29
2023/07/25 15:50:25;;;;;;;0.55;0.52;;;;;;;20.32;48.44;101092.56;4971769;28;96608;-27
2023/07/25 15:52:50;;;;;;;3.30;0.45;;;;;;;20.34;48.63;101084.16;4971954;28;96831;-27
2023/07/25 15:55:15;;;;;;;1.65;0.40;;;;;;;20.31;48.87;101092.72;4972413;28;97862;-27
2023/07/25 15:57:41;;;;;;;0.80;0.30;;;;;;;20.14;48.42;101094.38;4971898;28;97948;-28
2023/07/25 16:00:08;;;;;;;1.17;0.40;;;;;;;20.11;48.75;101101.03;4972332;28;96599;-28
2023/07/25 16:02:34;;;;;;;0.55;0.32;;;;;;;20.02;49.30;101090.97;4970782;28;96717;-28
2023/07/25 16:04:59;;;;;;;2.33;0.50;;;;;;;20.02;49.67;101095.56;4972127;28;98198;-29
2023/07/25 16:07:25;;;;;;;1.50;0.60;;;;;;;20.08;49.58;101106.00;4972164;28;99120;-28
2023/07/25 16:09:50;;;;;;;0.98;0.28;;;;;;;20.17;49.25;101104.22;4971350;28;97818;-27
2023/07/25 16:12:16;;;;;;;0.75;0.50;;;;;;;20.23;49.40;101098.97;4972314;28;96904;-27
2023/07/25 16:14:41;;;;;;;1.88;0.40;;;;;;;20.30;49.84;101082.72;4970084;28;101198;-27
2023/07/25 16:17:07;;;;;;;0.47;0.40;;;;;;;20.31;49.47;101087.22;4972103;28;97870;-27
2023/07/25 16:19:32;;;;;;;3.42;0.57;;;;;;;20.37;49.18;101094.84;4972137;28;96632;-27
2023/07/25 16:21:57;;;;;;;1.27;0.50;;;;;;;20.39;49.11;101097.47;4974984;28;96905;-28
2023/07/25 16:24:23;;;;;;;1.52;0.55;;;;;;;20.40;49.20;101093.69;4975364;28;97937;-27
2023/07/25 16:26:48;;;;;;;0.43;0.30;;;;;;;20.27;49.29;101094.91;4975422;28;97293;-27
2023/07/25 16:29:13;;;;;;;1.02;0.50;;;;;;;20.30;49.72;101094.59;4975624;28;96763;-27